createdAt,value
2023-05-20T00:02:23.093Z,4.63
2023-05-20T00:04:50.525Z,3.67
2023-05-20T00:07:17.820Z,2.77
2023-05-20T00:09:45.143Z,2.60
2023-05-20T00:12:12.343Z,2.72
2023-05-20T00:14:39.596Z,2.17
2023-05-20T00:17:06.819Z,2.47
2023-05-20T00:19:33.997Z,2.63
2023-05-20T00:22:01.198Z,2.40
2023-05-20T00:24:28.804Z,2.10
2023-05-20T00:26:56.023Z,3.70
2023-05-20T00:29:23.268Z,2.60
2023-05-20T00:31:50.571Z,2.70
2023-05-20T00:34:17.829Z,2.80
2023-05-20T00:36:45.109Z,2.70
2023-05-20T00:39:12.871Z,2.37
2023-05-20T00:41:40.911Z,2.10
2023-05-20T00:44:08.078Z,2.30
2023-05-20T00:46:36.833Z,2.47
2023-05-20T00:49:04.100Z,2.43
2023-05-20T00:51:31.321Z,2.23
2023-05-20T00:53:58.926Z,2.83
2023-05-20T00:56:26.256Z,2.20
2023-05-20T00:58:53.517Z,2.27
2023-05-20T01:01:20.810Z,2.10
2023-05-20T01:03:48.996Z,2.17
2023-05-20T01:06:16.283Z,2.30
2023-05-20T01:08:43.630Z,2.17
2023-05-20T01:11:14.634Z,2.57
2023-05-20T01:13:47.431Z,2.00
2023-05-20T01:16:16.077Z,2.57
2023-05-20T01:18:43.966Z,2.43
2023-05-20T01:21:12.752Z,2.60
2023-05-20T01:23:40.750Z,2.23
2023-05-20T01:26:08.166Z,2.73
2023-05-20T01:28:39.394Z,2.70
2023-05-20T01:31:09.109Z,2.20
2023-05-20T01:33:37.316Z,2.30
2023-05-20T01:36:04.958Z,2.77
2023-05-20T01:38:32.347Z,3.33
2023-05-20T01:41:00.396Z,2.40
2023-05-20T01:43:27.951Z,2.30
2023-05-20T01:45:55.170Z,2.60
2023-05-20T01:48:22.474Z,2.47
2023-05-20T01:50:49.703Z,2.50
2023-05-20T01:53:16.956Z,2.40
2023-05-20T01:55:44.168Z,2.53
2023-05-20T01:58:11.396Z,2.40
2023-05-20T02:00:38.670Z,2.37
2023-05-20T02:03:05.990Z,2.50
2023-05-20T02:05:33.520Z,2.23
2023-05-20T02:08:01.342Z,2.60
2023-05-20T02:10:28.607Z,2.30
2023-05-20T02:12:55.861Z,3.60
2023-05-20T02:15:23.106Z,2.20
2023-05-20T02:17:50.404Z,3.27
2023-05-20T02:20:17.721Z,2.40
2023-05-20T02:22:44.979Z,2.87
2023-05-20T02:25:12.290Z,2.23
2023-05-20T02:27:40.750Z,2.60
2023-05-20T02:30:08.432Z,2.43
2023-05-20T02:32:35.844Z,2.27
2023-05-20T02:35:03.130Z,2.20
2023-05-20T02:37:30.400Z,2.47
2023-05-20T02:39:57.636Z,2.03
2023-05-20T02:42:24.950Z,2.40
2023-05-20T02:44:56.445Z,2.37
2023-05-20T02:47:23.690Z,2.47
2023-05-20T02:49:50.926Z,2.30
2023-05-20T02:52:18.098Z,2.60
2023-05-20T02:54:45.329Z,2.60
2023-05-20T02:57:12.682Z,2.73
2023-05-20T02:59:40.006Z,2.20
2023-05-20T03:02:07.490Z,2.10
2023-05-20T03:04:38.555Z,2.47
2023-05-20T03:07:09.093Z,2.43
2023-05-20T03:09:36.700Z,2.70
2023-05-20T03:12:04.051Z,2.50
2023-05-20T03:14:31.281Z,2.77
2023-05-20T03:17:00.113Z,2.90
2023-05-20T03:19:27.391Z,3.00
2023-05-20T03:21:54.730Z,2.83
2023-05-20T03:24:23.449Z,3.00
2023-05-20T03:26:50.690Z,3.00
2023-05-20T03:29:21.338Z,2.30
2023-05-20T03:31:48.603Z,2.63
2023-05-20T03:34:15.849Z,2.67
2023-05-20T03:36:43.081Z,3.00
2023-05-20T03:39:10.389Z,3.23
2023-05-20T03:41:37.999Z,2.90
2023-05-20T03:44:05.329Z,3.10
2023-05-20T03:46:34.340Z,2.70
2023-05-20T03:49:02.349Z,2.70
2023-05-20T03:51:29.610Z,2.83
2023-05-20T03:53:56.801Z,2.60
2023-05-20T03:56:24.099Z,2.67
2023-05-20T03:58:51.634Z,3.17
2023-05-20T04:01:18.906Z,2.40
2023-05-20T04:03:46.214Z,3.00
2023-05-20T04:06:14.689Z,2.97
2023-05-20T04:08:42.446Z,2.67
2023-05-20T04:11:09.704Z,3.07
2023-05-20T04:13:36.896Z,10.27
2023-05-20T04:16:05.418Z,6.20
2023-05-20T04:18:32.753Z,3.20
2023-05-20T04:21:01.681Z,3.87
2023-05-20T04:23:29.209Z,3.20
2023-05-20T04:26:02.287Z,3.27
2023-05-20T04:28:31.547Z,3.10
2023-05-20T04:30:59.255Z,3.63
2023-05-20T04:33:27.174Z,3.43
2023-05-20T04:35:58.663Z,3.20
2023-05-20T04:38:29.940Z,3.10
2023-05-20T04:41:00.367Z,3.20
2023-05-20T04:43:30.099Z,3.20
2023-05-20T04:45:57.813Z,2.90
2023-05-20T04:48:25.085Z,3.17
2023-05-20T04:50:52.673Z,3.60
2023-05-20T04:53:20.115Z,3.20
2023-05-20T04:55:47.356Z,3.13
2023-05-20T04:58:17.782Z,3.23
2023-05-20T05:00:45.672Z,4.20
2023-05-20T05:03:13.012Z,2.97
2023-05-20T05:05:40.677Z,3.17
2023-05-20T05:08:07.902Z,3.00
2023-05-20T05:10:36.062Z,6.17
2023-05-20T05:13:03.669Z,3.53
2023-05-20T05:15:31.044Z,8.83
2023-05-20T05:17:58.877Z,3.97
2023-05-20T05:20:26.171Z,3.60
2023-05-20T05:22:53.380Z,3.90
2023-05-20T05:25:20.724Z,4.40
2023-05-20T05:27:50.352Z,3.20
2023-05-20T05:30:17.822Z,3.60
2023-05-20T05:32:45.245Z,4.03
2023-05-20T05:35:12.600Z,3.07
2023-05-20T05:37:39.808Z,2.73
2023-05-20T05:40:08.235Z,3.40
2023-05-20T05:42:35.513Z,3.37
2023-05-20T05:45:02.728Z,3.30
2023-05-20T05:47:32.678Z,3.97
2023-05-20T05:50:00.440Z,6.87
2023-05-20T05:52:28.251Z,3.27
2023-05-20T05:54:55.670Z,3.57
2023-05-20T05:57:23.073Z,3.20
2023-05-20T05:59:50.381Z,3.73
2023-05-20T06:02:17.736Z,3.90
2023-05-20T06:04:45.022Z,4.67
2023-05-20T06:07:12.260Z,3.87
2023-05-20T06:09:39.983Z,2.83
2023-05-20T06:12:07.403Z,2.90
2023-05-20T06:14:34.655Z,3.70
2023-05-20T06:17:02.854Z,3.50
2023-05-20T06:19:30.207Z,3.57
2023-05-20T06:22:00.992Z,3.63
2023-05-20T06:24:28.200Z,2.90
2023-05-20T06:26:55.473Z,3.77
2023-05-20T06:29:22.781Z,4.10
2023-05-20T06:31:49.978Z,4.10
2023-05-20T06:34:17.303Z,4.43
2023-05-20T06:36:44.460Z,3.63
2023-05-20T06:39:12.524Z,4.00
2023-05-20T06:41:40.327Z,3.33
2023-05-20T06:44:07.865Z,3.95
2023-05-20T06:46:35.214Z,3.45
2023-05-20T06:49:03.144Z,4.25
2023-05-20T06:51:30.814Z,4.47
2023-05-20T06:53:58.004Z,3.95
2023-05-20T06:56:25.243Z,4.67
2023-05-20T06:58:52.468Z,3.65
2023-05-20T07:01:19.725Z,4.07
2023-05-20T07:03:47.043Z,3.63
2023-05-20T07:06:14.242Z,3.80
2023-05-20T07:08:41.516Z,3.50
2023-05-20T07:11:08.765Z,4.65
2023-05-20T07:13:36.059Z,6.78
2023-05-20T07:16:03.332Z,5.72
2023-05-20T07:18:30.583Z,4.68
2023-05-20T07:20:57.936Z,4.97
2023-05-20T07:23:25.628Z,7.07
2023-05-20T07:25:53.875Z,22.50
2023-05-20T07:28:22.745Z,7.10
2023-05-20T07:30:50.514Z,6.28
2023-05-20T07:33:18.099Z,3.60
2023-05-20T07:35:45.730Z,4.30
2023-05-20T07:38:13.364Z,4.82
2023-05-20T07:40:41.489Z,4.38
2023-05-20T07:43:09.453Z,5.55
2023-05-20T07:45:37.431Z,4.40
2023-05-20T07:48:05.372Z,4.43
2023-05-20T07:50:32.716Z,4.22
2023-05-20T07:52:59.954Z,4.47
2023-05-20T07:55:27.143Z,4.10
2023-05-20T07:57:54.387Z,4.82
2023-05-20T08:00:21.619Z,4.30
2023-05-20T08:02:48.935Z,4.20
2023-05-20T08:05:16.225Z,4.13
2023-05-20T08:07:43.429Z,4.68
2023-05-20T08:10:10.821Z,8.50
2023-05-20T08:12:38.067Z,8.95
2023-05-20T08:15:06.086Z,13.55
2023-05-20T08:17:33.716Z,6.53
2023-05-20T08:20:01.348Z,11.90
2023-05-20T08:22:28.751Z,4.82
2023-05-20T08:24:55.991Z,5.28
2023-05-20T08:27:23.342Z,4.50
2023-05-20T08:29:50.551Z,4.85
2023-05-20T08:32:17.864Z,4.22
2023-05-20T08:34:45.166Z,4.75
2023-05-20T08:37:12.368Z,4.28
2023-05-20T08:39:39.582Z,4.10
2023-05-20T08:42:08.128Z,4.57
2023-05-20T08:44:35.510Z,4.20
2023-05-20T08:47:03.920Z,4.38
2023-05-20T08:49:32.431Z,4.82
2023-05-20T08:52:03.790Z,4.63
2023-05-20T08:54:37.760Z,4.88
2023-05-20T08:57:05.952Z,5.15
2023-05-20T08:59:33.879Z,4.30
2023-05-20T09:02:01.230Z,5.13
2023-05-20T09:04:28.527Z,5.43
2023-05-20T09:06:55.914Z,4.13
2023-05-20T09:09:23.594Z,4.45
2023-05-20T09:11:50.873Z,4.60
2023-05-20T09:14:18.080Z,4.78
2023-05-20T09:16:45.329Z,4.25
2023-05-20T09:19:12.624Z,4.85
2023-05-20T09:21:42.334Z,5.50
2023-05-20T09:24:09.544Z,4.90
2023-05-20T09:26:37.117Z,4.88
2023-05-20T09:29:05.097Z,4.75
2023-05-20T09:31:35.714Z,5.15
2023-05-20T09:34:03.999Z,5.35
2023-05-20T09:36:31.929Z,5.10
2023-05-20T09:39:05.182Z,5.63
2023-05-20T09:41:35.529Z,4.97
2023-05-20T09:44:04.099Z,5.70
2023-05-20T09:46:31.709Z,8.75
2023-05-20T09:48:59.867Z,6.07
2023-05-20T09:51:28.362Z,5.75
2023-05-20T09:53:56.932Z,5.93
2023-05-20T09:56:24.770Z,5.32
2023-05-20T09:58:58.240Z,5.72
2023-05-20T10:01:25.711Z,4.95
2023-05-20T10:03:53.872Z,6.35
2023-05-20T10:06:24.288Z,5.82
2023-05-20T10:09:00.854Z,5.68
2023-05-20T10:11:28.174Z,5.18
2023-05-20T10:13:55.381Z,5.70
2023-05-20T10:16:24.321Z,5.75
2023-05-20T10:18:51.622Z,5.30
2023-05-20T10:21:19.444Z,6.28
2023-05-20T10:23:46.765Z,5.75
2023-05-20T10:26:14.100Z,6.00
2023-05-20T10:28:41.950Z,5.53
2023-05-20T10:31:17.128Z,5.25
2023-05-20T10:33:45.178Z,5.25
2023-05-20T10:36:23.137Z,6.07
2023-05-20T10:38:53.038Z,5.57
2023-05-20T10:41:24.588Z,6.63
2023-05-20T10:44:04.984Z,5.72
2023-05-20T10:46:40.132Z,5.13
2023-05-20T10:49:26.771Z,5.75
2023-05-20T10:51:54.794Z,4.93
2023-05-20T10:54:23.404Z,4.90
2023-05-20T10:56:54.489Z,6.20
2023-05-20T10:59:22.489Z,7.85
2023-05-20T11:01:49.888Z,6.45
2023-05-20T11:04:17.755Z,5.22
2023-05-20T11:06:55.889Z,5.38
2023-05-20T11:09:23.436Z,4.38
2023-05-20T11:11:51.732Z,4.65
2023-05-20T11:14:20.198Z,5.40
2023-05-20T11:16:48.652Z,5.20
2023-05-20T11:19:16.709Z,5.20
2023-05-20T11:21:44.847Z,5.18
2023-05-20T11:24:12.312Z,5.75
2023-05-20T11:26:40.181Z,5.25
2023-05-20T11:29:07.840Z,4.22
2023-05-20T11:31:35.182Z,5.00
2023-05-20T11:34:04.026Z,5.47
2023-05-20T11:36:32.448Z,5.25
2023-05-20T11:39:00.310Z,4.38
2023-05-20T11:41:28.204Z,4.80
2023-05-20T11:43:59.444Z,4.30
2023-05-20T11:46:27.367Z,4.72
2023-05-20T11:48:58.122Z,5.22
2023-05-20T11:51:28.837Z,4.70
2023-05-20T11:54:05.801Z,5.32
2023-05-20T11:56:39.308Z,5.18
2023-05-20T11:59:07.079Z,5.30
2023-05-20T12:01:37.779Z,5.60
2023-05-20T12:04:09.034Z,6.60
2023-05-20T12:06:40.081Z,7.30
2023-05-20T12:09:08.535Z,5.90
2023-05-20T12:11:37.351Z,20.65
2023-05-20T12:14:05.031Z,7.05
2023-05-20T12:16:33.701Z,7.13
2023-05-20T12:19:01.104Z,9.80
2023-05-20T12:21:31.629Z,8.82
2023-05-20T12:24:02.104Z,5.78
2023-05-20T12:26:29.883Z,10.00
2023-05-20T12:28:57.518Z,6.45
2023-05-20T12:31:25.316Z,5.28
2023-05-20T12:33:52.307Z,5.30
2023-05-20T12:36:22.521Z,5.95
2023-05-20T12:38:49.712Z,5.50
2023-05-20T12:41:16.577Z,5.90
2023-05-20T12:43:43.416Z,4.40
2023-05-20T12:46:10.627Z,4.22
2023-05-20T12:48:38.003Z,5.75
2023-05-20T12:51:05.900Z,6.32
2023-05-20T12:53:33.093Z,5.80
2023-05-20T12:56:01.054Z,5.70
2023-05-20T12:58:28.297Z,6.75
2023-05-20T13:00:55.529Z,11.02
2023-05-20T13:03:22.756Z,6.93
2023-05-20T13:05:50.073Z,7.88
2023-05-20T13:08:17.281Z,6.35
2023-05-20T13:10:44.548Z,4.38
2023-05-20T13:13:12.424Z,6.38
2023-05-20T13:15:39.665Z,5.35
2023-05-20T13:18:07.153Z,7.53
2023-05-20T13:20:34.717Z,5.25
2023-05-20T13:23:02.274Z,4.25
2023-05-20T13:25:29.552Z,4.15
2023-05-20T13:27:56.757Z,4.18
2023-05-20T13:30:23.985Z,7.70
2023-05-20T13:32:51.187Z,6.30
2023-05-20T13:35:18.461Z,6.65
2023-05-20T13:37:45.737Z,5.18
2023-05-20T13:40:13.189Z,4.60
2023-05-20T13:42:40.681Z,4.22
2023-05-20T13:45:08.226Z,5.32
2023-05-20T13:47:35.647Z,8.05
2023-05-20T13:50:03.922Z,8.25
2023-05-20T13:52:31.222Z,5.75
2023-05-20T13:54:58.467Z,4.50
2023-05-20T13:57:25.766Z,4.63
2023-05-20T13:59:53.042Z,5.68
2023-05-20T14:02:20.283Z,5.00
2023-05-20T14:04:47.564Z,4.30
2023-05-20T14:07:14.869Z,3.70
2023-05-20T14:09:42.245Z,3.70
2023-05-20T14:12:09.573Z,4.28
2023-05-20T14:14:36.860Z,3.70
2023-05-20T14:17:04.129Z,2.83
2023-05-20T14:19:31.646Z,3.75
2023-05-20T14:22:01.131Z,3.83
2023-05-20T14:24:28.400Z,3.53
2023-05-20T14:26:55.823Z,4.43
2023-05-20T14:29:23.036Z,3.58
2023-05-20T14:31:50.662Z,3.78
2023-05-20T14:34:17.942Z,3.20
2023-05-20T14:36:45.186Z,3.20
2023-05-20T14:39:12.423Z,8.05
2023-05-20T14:41:39.653Z,3.03
2023-05-20T14:44:06.851Z,3.58
2023-05-20T14:46:34.388Z,2.90
2023-05-20T14:49:02.028Z,2.55
2023-05-20T14:51:29.257Z,2.42
2023-05-20T14:53:56.486Z,3.20
2023-05-20T14:56:23.837Z,3.17
2023-05-20T14:58:51.104Z,2.90
2023-05-20T15:01:18.598Z,2.75
2023-05-20T15:03:45.985Z,2.95
2023-05-20T15:06:13.245Z,2.97
2023-05-20T15:08:41.593Z,3.30
2023-05-20T15:11:08.748Z,3.42
2023-05-20T15:13:38.948Z,3.15
2023-05-20T15:16:07.716Z,3.40
2023-05-20T15:18:34.933Z,2.78
2023-05-20T15:21:02.253Z,2.95
2023-05-20T15:23:29.563Z,2.45
2023-05-20T15:25:58.486Z,2.90
2023-05-20T15:28:25.726Z,2.88
2023-05-20T15:30:54.677Z,2.92
2023-05-20T15:33:22.040Z,3.45
2023-05-20T15:35:49.333Z,3.25
2023-05-20T15:38:17.474Z,3.00
2023-05-20T15:40:44.830Z,2.60
2023-05-20T15:43:12.049Z,3.20
2023-05-20T15:45:39.273Z,2.97
2023-05-20T15:48:06.977Z,3.45
2023-05-20T15:50:36.773Z,3.05
2023-05-20T15:53:06.951Z,3.08
2023-05-20T15:55:34.539Z,3.28
2023-05-20T15:58:01.960Z,3.40
2023-05-20T16:00:29.191Z,3.20
2023-05-20T16:02:56.777Z,3.30
2023-05-20T16:05:25.561Z,3.95
2023-05-20T16:07:57.055Z,3.30
2023-05-20T16:10:31.341Z,3.40
2023-05-20T16:12:59.478Z,3.17
2023-05-20T16:15:27.090Z,3.88
2023-05-20T16:17:54.305Z,3.70
2023-05-20T16:20:21.527Z,3.85
2023-05-20T16:22:48.890Z,3.67
2023-05-20T16:25:16.268Z,4.10
2023-05-20T16:27:43.499Z,3.55
2023-05-20T16:30:12.228Z,3.42
2023-05-20T16:32:40.932Z,2.90
2023-05-20T16:35:08.620Z,3.28
2023-05-20T16:37:35.901Z,3.15
2023-05-20T16:40:04.254Z,3.42
2023-05-20T16:42:31.475Z,3.38
2023-05-20T16:44:58.662Z,4.35
2023-05-20T16:47:25.929Z,3.40
2023-05-20T16:49:53.163Z,3.75
2023-05-20T16:52:20.549Z,3.05
2023-05-20T16:54:48.226Z,4.22
2023-05-20T16:57:16.414Z,3.92
2023-05-20T16:59:43.662Z,4.22
2023-05-20T17:02:10.954Z,3.88
2023-05-20T17:04:38.158Z,3.90
2023-05-20T17:07:09.726Z,3.50
2023-05-20T17:09:37.512Z,4.00
2023-05-20T17:12:05.090Z,3.90
2023-05-20T17:14:32.288Z,4.07
2023-05-20T17:16:59.659Z,3.90
2023-05-20T17:19:26.989Z,4.25
2023-05-20T17:21:54.339Z,3.83
2023-05-20T17:24:21.548Z,4.00
2023-05-20T17:26:48.809Z,3.90
2023-05-20T17:29:16.048Z,3.92
2023-05-20T17:31:44.411Z,3.92
2023-05-20T17:34:11.756Z,4.20
2023-05-20T17:36:38.989Z,4.10
2023-05-20T17:39:06.563Z,4.05
2023-05-20T17:41:33.799Z,3.70
2023-05-20T17:44:01.727Z,7.55
2023-05-20T17:46:29.116Z,10.90
2023-05-20T17:48:56.836Z,3.60
2023-05-20T17:51:24.073Z,4.00
2023-05-20T17:53:51.712Z,5.18
2023-05-20T17:56:19.071Z,4.10
2023-05-20T17:58:46.938Z,4.15
2023-05-20T18:01:15.083Z,4.40
2023-05-20T18:03:42.470Z,14.75
2023-05-20T18:06:09.819Z,4.10
2023-05-20T18:08:37.037Z,4.88
2023-05-20T18:11:04.353Z,4.50
2023-05-20T18:13:31.670Z,3.92
2023-05-20T18:15:58.954Z,3.55
2023-05-20T18:18:26.268Z,8.10
2023-05-20T18:20:53.622Z,5.03
2023-05-20T18:23:21.749Z,6.80
2023-05-20T18:25:49.162Z,4.45
2023-05-20T18:28:16.586Z,4.20
2023-05-20T18:30:43.830Z,4.35
2023-05-20T18:33:11.304Z,4.00
2023-05-20T18:35:39.377Z,4.38
2023-05-20T18:38:07.171Z,4.43
2023-05-20T18:40:34.644Z,4.43
2023-05-20T18:43:02.027Z,6.22
2023-05-20T18:45:29.876Z,4.65
2023-05-20T18:47:59.383Z,4.50
2023-05-20T18:50:26.884Z,6.90
2023-05-20T18:52:54.104Z,5.10
2023-05-20T18:55:21.351Z,4.15
2023-05-20T18:57:48.678Z,4.50
2023-05-20T19:00:17.209Z,4.07
2023-05-20T19:02:44.820Z,4.22
2023-05-20T19:05:13.009Z,4.65
2023-05-20T19:07:41.012Z,4.32
2023-05-20T19:10:08.726Z,5.00
2023-05-20T19:12:35.931Z,4.53
2023-05-20T19:15:05.172Z,6.28
2023-05-20T19:17:32.457Z,8.18
2023-05-20T19:19:59.984Z,10.23
2023-05-20T19:22:27.159Z,4.93
2023-05-20T19:24:54.399Z,5.78
2023-05-20T19:27:21.750Z,5.45
2023-05-20T19:29:48.950Z,5.05
2023-05-20T19:32:16.363Z,4.65
2023-05-20T19:34:43.876Z,4.47
2023-05-20T19:37:11.512Z,5.25
2023-05-20T19:39:38.783Z,4.75
2023-05-20T19:42:06.207Z,5.55
2023-05-20T19:44:33.488Z,5.05
2023-05-20T19:47:00.825Z,6.40
2023-05-20T19:49:29.488Z,7.57
2023-05-20T19:51:56.925Z,6.15
2023-05-20T19:54:24.389Z,6.38
2023-05-20T19:56:51.685Z,5.97
2023-05-20T19:59:18.951Z,6.43
2023-05-20T20:01:46.218Z,7.05
2023-05-20T20:04:13.872Z,7.13
2023-05-20T20:06:41.156Z,7.32
2023-05-20T20:09:08.543Z,7.15
2023-05-20T20:11:36.090Z,6.75
2023-05-20T20:14:03.342Z,6.70
2023-05-20T20:16:30.703Z,6.28
2023-05-20T20:18:58.052Z,7.15
2023-05-20T20:21:25.814Z,6.82
2023-05-20T20:23:53.425Z,7.05
2023-05-20T20:26:23.653Z,7.05
2023-05-20T20:28:50.834Z,7.50
2023-05-20T20:31:18.146Z,8.25
2023-05-20T20:33:45.440Z,7.88
2023-05-20T20:36:12.644Z,7.65
2023-05-20T20:38:39.872Z,6.72
2023-05-20T20:41:09.551Z,8.80
2023-05-20T20:43:38.225Z,7.68
2023-05-20T20:46:06.344Z,7.63
2023-05-20T20:48:34.547Z,7.78
2023-05-20T20:51:05.472Z,7.97
2023-05-20T20:53:32.679Z,8.60
2023-05-20T20:55:59.925Z,8.02
2023-05-20T20:58:27.130Z,8.00
2023-05-20T21:00:54.468Z,7.53
2023-05-20T21:03:24.023Z,7.80
2023-05-20T21:05:51.857Z,10.50
2023-05-20T21:08:22.132Z,11.70
2023-05-20T21:10:49.334Z,8.63
2023-05-20T21:13:17.704Z,7.72
2023-05-20T21:15:46.433Z,8.57
2023-05-20T21:18:16.550Z,7.80
2023-05-20T21:20:43.765Z,9.95
2023-05-20T21:23:10.963Z,7.43
2023-05-20T21:25:38.245Z,9.07
2023-05-20T21:28:05.802Z,8.38
2023-05-20T21:30:33.022Z,8.40
2023-05-20T21:33:00.264Z,9.18
2023-05-20T21:35:27.475Z,7.93
2023-05-20T21:37:54.729Z,8.88
2023-05-20T21:40:22.044Z,9.27
2023-05-20T21:42:49.616Z,9.10
2023-05-20T21:45:19.575Z,9.48
2023-05-20T21:47:46.844Z,9.00
2023-05-20T21:50:14.117Z,9.25
2023-05-20T21:52:41.309Z,8.85
2023-05-20T21:55:09.842Z,8.10
2023-05-20T21:57:37.462Z,10.55
2023-05-20T22:00:09.553Z,8.90
2023-05-20T22:02:37.091Z,8.93
2023-05-20T22:05:05.040Z,9.25
2023-05-20T22:07:33.095Z,9.40
2023-05-20T22:10:02.279Z,9.10
2023-05-20T22:12:29.594Z,8.98
2023-05-20T22:14:56.902Z,9.27
2023-05-20T22:17:24.882Z,9.73
2023-05-20T22:19:53.616Z,8.85
2023-05-20T22:22:20.843Z,9.50
2023-05-20T22:24:47.993Z,9.75
2023-05-20T22:27:15.166Z,14.45
2023-05-20T22:29:42.406Z,10.63
2023-05-20T22:32:09.621Z,16.80
2023-05-20T22:34:38.479Z,10.20
2023-05-20T22:37:07.214Z,8.88
2023-05-20T22:39:34.501Z,9.43
2023-05-20T22:42:01.683Z,9.40
2023-05-20T22:44:28.859Z,8.65
2023-05-20T22:46:56.085Z,10.45
2023-05-20T22:49:28.093Z,9.40
2023-05-20T22:51:55.358Z,8.90
2023-05-20T22:54:22.678Z,8.88
2023-05-20T22:56:56.656Z,14.43
2023-05-20T22:59:24.000Z,10.25
2023-05-20T23:01:51.238Z,9.93
2023-05-20T23:04:18.504Z,9.32
2023-05-20T23:06:45.846Z,8.65
2023-05-20T23:09:13.386Z,10.80
2023-05-20T23:11:40.662Z,10.25
2023-05-20T23:14:07.869Z,10.02
2023-05-20T23:16:36.338Z,11.00
2023-05-20T23:19:03.793Z,10.20
2023-05-20T23:21:31.742Z,10.40
2023-05-20T23:23:58.950Z,9.05
2023-05-20T23:26:28.903Z,10.75
2023-05-20T23:28:56.105Z,11.15
2023-05-20T23:31:23.324Z,19.05
2023-05-20T23:33:50.847Z,13.55
2023-05-20T23:36:20.074Z,10.25
2023-05-20T23:38:47.293Z,10.00
2023-05-20T23:41:14.531Z,9.40
2023-05-20T23:43:42.855Z,10.82
2023-05-20T23:46:10.215Z,9.88
2023-05-20T23:48:37.458Z,9.57
2023-05-20T23:51:04.778Z,10.82
2023-05-20T23:53:32.038Z,9.38
2023-05-20T23:55:59.314Z,9.57
2023-05-20T23:58:26.508Z,9.90
